Time;durP1;ratioP1;P1;durP2;ratioP2;P2;SDS_P1;SDS_P2;PMS_P1;PMS_P2;Temp;Humidity;BMP_temperature;BMP_pressure;BME280_temperature;BME280_humidity;BME280_pressure;Samples;Min_cycle;Max_cycle;Signal;HPM_P1;HPM_P2
2021/04/28 00:00:15;;;;;;;7.38;7.13;;;;;;;;;;5030198;28;20076;-54
2021/04/28 00:02:42;;;;;;;6.45;6.03;;;;;;;;;;5030773;28;20048;-53
2021/04/28 00:05:09;;;;;;;40.38;4.85;;;;;;;;;;5029225;28;20065;-54
2021/04/28 00:07:35;;;;;;;59.30;7.28;;;;;;;;;;5029538;28;20493;-54
2021/04/28 00:10:04;;;;;;;21.77;5.22;;;;;;;;;;5030629;28;20033;-54
2021/04/28 00:12:30;;;;;;;5.15;4.93;;;;;;;;;;5028345;28;20045;-54
2021/04/28 00:14:56;;;;;;;20.15;5.03;;;;;;;;;;5029240;28;20038;-53
2021/04/28 00:17:23;;;;;;;3.92;3.83;;;;;;;;;;5027888;28;20056;-54
2021/04/28 00:19:49;;;;;;;4.55;4.45;;;;;;;;;;5026093;28;20057;-54
2021/04/28 00:22:16;;;;;;;5.00;4.57;;;;;;;;;;5029430;28;20030;-53
2021/04/28 00:24:42;;;;;;;5.10;4.78;;;;;;;;;;5029329;28;20137;-53
2021/04/28 00:27:09;;;;;;;6.20;5.68;;;;;;;;;;5012555;28;20042;-54
2021/04/28 00:29:36;;;;;;;6.38;6.22;;;;;;;;;;5022904;28;20065;-53
2021/04/28 00:32:02;;;;;;;5.95;5.13;;;;;;;;;;5024082;28;20103;-54
2021/04/28 00:34:29;;;;;;;5.90;5.75;;;;;;;;;;5030540;28;20620;-54
2021/04/28 00:36:55;;;;;;;5.53;5.20;;;;;;;;;;5026971;28;20026;-54
2021/04/28 00:39:22;;;;;;;4.40;4.22;;;;;;;;;;5015938;28;20042;-52
2021/04/28 00:41:49;;;;;;;4.25;3.72;;;;;;;;;;5020818;28;20564;-54
2021/04/28 00:44:15;;;;;;;4.35;4.03;;;;;;;;;;5019899;28;20049;-54
2021/04/28 00:47:02;;;;;;;3.63;3.42;;;;;;;;;;5028942;28;20060;-54
2021/04/28 00:49:29;;;;;;;4.18;3.97;;;;;;;;;;5028131;28;20037;-54
2021/04/28 00:51:56;;;;;;;3.88;3.78;;;;;;;;;;5028666;28;20719;-55
2021/04/28 00:54:22;;;;;;;4.47;4.38;;;;;;;;;;5026802;28;20072;-55
2021/04/28 00:56:48;;;;;;;3.60;3.60;;;;;;;;;;5026531;28;20029;-54
2021/04/28 00:59:15;;;;;;;3.97;3.70;;;;;;;;;;5016202;28;20048;-54
2021/04/28 01:01:41;;;;;;;4.43;3.92;;;;;;;;;;5022996;28;20494;-53
2021/04/28 01:04:07;;;;;;;3.20;3.10;;;;;;;;;;5016827;28;20136;-54
2021/04/28 01:06:38;;;;;;;3.15;2.95;;;;;;;;;;5028503;28;20491;-54
2021/04/28 01:09:04;;;;;;;3.40;3.30;;;;;;;;;;5026912;28;20034;-54
2021/04/28 01:11:31;;;;;;;4.13;3.92;;;;;;;;;;5022712;28;20393;-54
2021/04/28 01:14:00;;;;;;;3.95;3.85;;;;;;;;;;5025930;28;20480;-54
2021/04/28 01:16:26;;;;;;;3.92;3.83;;;;;;;;;;5023369;28;20367;-54
2021/04/28 01:18:54;;;;;;;5.97;3.25;;;;;;;;;;5021274;28;20121;-54
2021/04/28 01:21:21;;;;;;;3.90;3.72;;;;;;;;;;5026013;28;20038;-54
2021/04/28 01:23:47;;;;;;;3.85;3.65;;;;;;;;;;5028767;28;20038;-52
2021/04/28 01:26:14;;;;;;;4.35;4.25;;;;;;;;;;5027091;28;20040;-54
2021/04/28 01:28:41;;;;;;;3.90;3.80;;;;;;;;;;5028959;28;20101;-53
2021/04/28 01:31:10;;;;;;;3.40;3.30;;;;;;;;;;5028923;28;20510;-53
2021/04/28 01:33:43;;;;;;;3.45;3.30;;;;;;;;;;5025571;28;20393;-53
2021/04/28 01:36:22;;;;;;;5.75;3.38;;;;;;;;;;5021949;28;20034;-54
2021/04/28 01:38:52;;;;;;;3.70;3.60;;;;;;;;;;5028162;28;20454;-54
2021/04/28 01:41:19;;;;;;;3.28;3.17;;;;;;;;;;5026009;28;20065;-53
2021/04/28 01:43:46;;;;;;;3.50;3.38;;;;;;;;;;5010036;28;20534;-54
2021/04/28 01:46:13;;;;;;;4.05;3.95;;;;;;;;;;5028959;28;20057;-54
2021/04/28 01:48:40;;;;;;;3.03;2.97;;;;;;;;;;5026480;28;20051;-55
2021/04/28 01:51:06;;;;;;;4.07;3.97;;;;;;;;;;5025869;28;20057;-54
2021/04/28 01:53:33;;;;;;;2.90;2.90;;;;;;;;;;5027336;28;20061;-54
2021/04/28 01:55:59;;;;;;;2.95;2.95;;;;;;;;;;5028283;28;20038;-55
2021/04/28 01:58:27;;;;;;;3.63;3.53;;;;;;;;;;5029124;28;20041;-54
2021/04/28 02:00:53;;;;;;;3.35;3.25;;;;;;;;;;5028559;28;20422;-55
2021/04/28 02:03:21;;;;;;;3.38;3.30;;;;;;;;;;5019664;28;20087;-54
2021/04/28 02:05:48;;;;;;;3.72;3.63;;;;;;;;;;5026688;28;20037;-53
2021/04/28 02:08:14;;;;;;;3.05;2.97;;;;;;;;;;5012980;28;20053;-55
2021/04/28 02:10:40;;;;;;;3.60;3.50;;;;;;;;;;5022318;28;20037;-54
2021/04/28 02:13:08;;;;;;;4.95;4.63;;;;;;;;;;5026684;28;20103;-55
2021/04/28 02:15:34;;;;;;;3.95;3.85;;;;;;;;;;5018847;28;20040;-54
2021/04/28 02:18:03;;;;;;;3.75;3.55;;;;;;;;;;5024206;28;20401;-54
2021/04/28 02:20:29;;;;;;;3.70;3.60;;;;;;;;;;5021759;28;20038;-54
2021/04/28 02:22:59;;;;;;;3.70;3.60;;;;;;;;;;5027561;28;20037;-54
2021/04/28 02:25:27;;;;;;;4.00;3.65;;;;;;;;;;5029255;28;20053;-54
2021/04/28 02:27:53;;;;;;;4.85;4.75;;;;;;;;;;5021652;28;20038;-55
2021/04/28 02:30:21;;;;;;;3.90;3.85;;;;;;;;;;5030895;28;20092;-53
2021/04/28 02:32:49;;;;;;;4.88;4.78;;;;;;;;;;5025992;28;20046;-55
2021/04/28 02:35:17;;;;;;;4.45;4.25;;;;;;;;;;5031619;28;20031;-55
2021/04/28 02:37:45;;;;;;;3.72;3.63;;;;;;;;;;5030405;28;20076;-54
2021/04/28 02:40:13;;;;;;;5.30;3.92;;;;;;;;;;5031058;28;20398;-55
2021/04/28 02:42:46;;;;;;;26.73;5.18;;;;;;;;;;5023219;28;20049;-54
2021/04/28 02:45:18;;;;;;;5.38;4.88;;;;;;;;;;5023503;28;20128;-54
2021/04/28 02:47:45;;;;;;;23.45;5.07;;;;;;;;;;5031914;28;20049;-53
2021/04/28 02:50:14;;;;;;;40.03;6.60;;;;;;;;;;5029913;28;20425;-54
2021/04/28 02:52:42;;;;;;;204.77;12.43;;;;;;;;;;5031036;28;20041;-54
2021/04/28 02:55:10;;;;;;;45.33;6.88;;;;;;;;;;5031017;28;20068;-53
2021/04/28 02:57:37;;;;;;;72.78;7.85;;;;;;;;;;5030415;28;20065;-53
2021/04/28 03:00:07;;;;;;;225.27;12.13;;;;;;;;;;5032354;28;20029;-53
2021/04/28 03:02:33;;;;;;;65.20;5.47;;;;;;;;;;5025786;28;20053;-54
2021/04/28 03:04:59;;;;;;;15.52;4.70;;;;;;;;;;5025509;28;20030;-53
2021/04/28 03:07:26;;;;;;;24.83;5.05;;;;;;;;;;5023545;28;20057;-53
2021/04/28 03:09:52;;;;;;;102.57;7.97;;;;;;;;;;5024129;28;20077;-54
2021/04/28 03:12:18;;;;;;;3.88;3.53;;;;;;;;;;5031832;28;20403;-53
2021/04/28 03:14:44;;;;;;;3.28;3.20;;;;;;;;;;5030440;28;20045;-53
2021/04/28 03:17:11;;;;;;;3.58;3.35;;;;;;;;;;5028937;28;20041;-53
2021/04/28 03:19:39;;;;;;;3.00;3.00;;;;;;;;;;5026546;28;20042;-53
2021/04/28 03:22:05;;;;;;;3.40;3.30;;;;;;;;;;5025505;28;20041;-55
2021/04/28 03:24:31;;;;;;;3.75;3.65;;;;;;;;;;5018625;28;20072;-54
2021/04/28 03:27:06;;;;;;;3.38;3.35;;;;;;;;;;5030245;28;20045;-54
2021/04/28 03:29:33;;;;;;;3.63;3.58;;;;;;;;;;5029340;28;20033;-53
2021/04/28 03:31:59;;;;;;;3.63;3.60;;;;;;;;;;5017363;28;20042;-54
2021/04/28 03:34:26;;;;;;;3.72;3.63;;;;;;;;;;5026711;28;20498;-54
2021/04/28 03:36:52;;;;;;;3.45;3.45;;;;;;;;;;5023332;28;20056;-53
2021/04/28 03:39:21;;;;;;;3.08;2.97;;;;;;;;;;5030894;28;20056;-53
2021/04/28 03:41:47;;;;;;;3.88;3.58;;;;;;;;;;5029923;28;20132;-53
2021/04/28 03:44:13;;;;;;;4.03;3.92;;;;;;;;;;5015366;28;20038;-54
2021/04/28 03:46:39;;;;;;;4.20;4.03;;;;;;;;;;5027356;28;20057;-54
2021/04/28 03:49:06;;;;;;;3.40;3.40;;;;;;;;;;5024279;28;20084;-54
2021/04/28 03:51:32;;;;;;;3.47;3.38;;;;;;;;;;5026859;28;20565;-54
2021/04/28 03:53:59;;;;;;;3.55;3.45;;;;;;;;;;5021763;28;20037;-54
2021/04/28 03:56:26;;;;;;;3.60;3.50;;;;;;;;;;5031268;28;20037;-53
2021/04/28 03:58:52;;;;;;;4.07;3.88;;;;;;;;;;5026261;28;20053;-54
2021/04/28 04:01:18;;;;;;;4.93;4.72;;;;;;;;;;5025586;28;20045;-53
2021/04/28 04:03:45;;;;;;;4.00;3.90;;;;;;;;;;5021030;28;20125;-54
2021/04/28 04:06:12;;;;;;;4.47;4.38;;;;;;;;;;5020745;28;20049;-54
2021/04/28 04:08:38;;;;;;;4.35;4.25;;;;;;;;;;5030688;28;20116;-53
2021/04/28 04:11:04;;;;;;;4.07;3.97;;;;;;;;;;5028528;28;20125;-54
2021/04/28 04:13:31;;;;;;;4.05;3.95;;;;;;;;;;5030375;28;20061;-54
2021/04/28 04:15:57;;;;;;;4.43;4.32;;;;;;;;;;5019208;28;20050;-53
2021/04/28 04:18:23;;;;;;;4.63;4.53;;;;;;;;;;5021191;28;20087;-54
2021/04/28 04:20:50;;;;;;;4.47;4.38;;;;;;;;;;5029181;28;20044;-55
2021/04/28 04:23:16;;;;;;;4.80;4.43;;;;;;;;;;5028962;28;20050;-54
2021/04/28 04:25:42;;;;;;;4.95;4.85;;;;;;;;;;5022348;28;20042;-54
2021/04/28 04:28:09;;;;;;;6.13;5.88;;;;;;;;;;5026990;28;20129;-53
2021/04/28 04:30:35;;;;;;;6.93;6.75;;;;;;;;;;5029393;28;20041;-54
2021/04/28 04:33:02;;;;;;;17.40;6.07;;;;;;;;;;5029883;28;20042;-53
2021/04/28 04:35:28;;;;;;;6.15;4.45;;;;;;;;;;5027461;28;20033;-54
2021/04/28 04:37:54;;;;;;;4.40;4.25;;;;;;;;;;5028384;28;20045;-54
2021/04/28 04:40:20;;;;;;;6.45;5.80;;;;;;;;;;5024212;28;20068;-54
2021/04/28 04:42:47;;;;;;;4.00;3.60;;;;;;;;;;5026718;28;20053;-53
2021/04/28 04:45:13;;;;;;;5.15;5.05;;;;;;;;;;5027419;28;20413;-54
2021/04/28 04:47:39;;;;;;;4.65;4.55;;;;;;;;;;5027072;28;20057;-54
2021/04/28 04:50:06;;;;;;;5.10;4.93;;;;;;;;;;5028637;28;20034;-53
2021/04/28 04:52:33;;;;;;;4.88;4.50;;;;;;;;;;5030213;28;20116;-54
2021/04/28 04:54:59;;;;;;;3.60;3.40;;;;;;;;;;5026184;28;20043;-53
2021/04/28 04:57:33;;;;;;;3.58;3.35;;;;;;;;;;5018135;28;20088;-54
2021/04/28 04:59:59;;;;;;;3.80;3.70;;;;;;;;;;5028373;28;20049;-53
2021/04/28 05:02:25;;;;;;;3.20;3.00;;;;;;;;;;5026984;28;20117;-54
2021/04/28 05:04:52;;;;;;;3.75;3.65;;;;;;;;;;5030473;28;20049;-54
2021/04/28 05:07:18;;;;;;;3.85;3.85;;;;;;;;;;5024641;28;20196;-54
2021/04/28 05:09:45;;;;;;;3.90;3.80;;;;;;;;;;5017809;28;20042;-53
2021/04/28 05:12:11;;;;;;;3.17;3.17;;;;;;;;;;5029452;28;20045;-54
2021/04/28 05:14:37;;;;;;;3.20;3.15;;;;;;;;;;5027865;28;20065;-54
2021/04/28 05:17:03;;;;;;;2.63;2.63;;;;;;;;;;5030175;28;20743;-54
2021/04/28 05:19:30;;;;;;;3.08;3.05;;;;;;;;;;5024671;28;20391;-53
2021/04/28 05:21:57;;;;;;;2.60;2.60;;;;;;;;;;5013494;28;20045;-53
2021/04/28 05:24:23;;;;;;;3.67;3.58;;;;;;;;;;5027108;28;20045;-54
2021/04/28 05:26:51;;;;;;;3.10;2.90;;;;;;;;;;5026758;28;20406;-54
2021/04/28 05:29:17;;;;;;;3.20;3.15;;;;;;;;;;5029958;28;20095;-54
2021/04/28 05:31:43;;;;;;;3.30;3.30;;;;;;;;;;5022346;28;20108;-54
2021/04/28 05:34:09;;;;;;;3.60;3.53;;;;;;;;;;5015033;28;20037;-53
2021/04/28 05:36:36;;;;;;;3.90;3.80;;;;;;;;;;5029111;28;20087;-54
2021/04/28 05:39:02;;;;;;;3.22;3.03;;;;;;;;;;5028914;28;20401;-53
2021/04/28 05:41:29;;;;;;;3.38;3.38;;;;;;;;;;5037356;28;20047;-54
2021/04/28 05:43:56;;;;;;;3.63;3.58;;;;;;;;;;5022121;28;20042;-53
2021/04/28 05:46:22;;;;;;;3.33;3.13;;;;;;;;;;5014120;28;20057;-54
2021/04/28 05:48:48;;;;;;;5.47;3.78;;;;;;;;;;5016597;28;20050;-54
2021/04/28 05:51:14;;;;;;;3.78;3.67;;;;;;;;;;5021652;28;20045;-55
2021/04/28 05:53:41;;;;;;;3.58;3.40;;;;;;;;;;5013946;28;20045;-54
2021/04/28 05:56:07;;;;;;;4.00;3.90;;;;;;;;;;5025700;28;20037;-54
2021/04/28 05:58:34;;;;;;;3.50;3.33;;;;;;;;;;5027857;28;20037;-54
2021/04/28 06:01:01;;;;;;;4.15;4.05;;;;;;;;;;5021679;28;20041;-54
2021/04/28 06:03:28;;;;;;;4.53;3.13;;;;;;;;;;5025637;28;20037;-54
2021/04/28 06:05:54;;;;;;;3.33;3.22;;;;;;;;;;5013928;28;20038;-54
2021/04/28 06:08:21;;;;;;;3.08;3.00;;;;;;;;;;5031258;28;20041;-54
2021/04/28 06:10:47;;;;;;;3.50;3.40;;;;;;;;;;5028265;28;20104;-54
2021/04/28 06:13:13;;;;;;;2.72;2.72;;;;;;;;;;5033438;28;20037;-53
2021/04/28 06:15:39;;;;;;;2.25;2.15;;;;;;;;;;5030792;28;20685;-56
2021/04/28 06:18:06;;;;;;;3.58;2.17;;;;;;;;;;5012729;28;20475;-54
2021/04/28 06:20:32;;;;;;;2.67;2.47;;;;;;;;;;5030654;28;20042;-54
2021/04/28 06:22:59;;;;;;;2.45;2.40;;;;;;;;;;5030962;28;20040;-53
2021/04/28 06:25:26;;;;;;;1.23;1.23;;;;;;;;;;5018876;28;20034;-54
2021/04/28 06:27:52;;;;;;;1.30;1.30;;;;;;;;;;5030250;28;20522;-54
2021/04/28 06:30:19;;;;;;;1.25;1.25;;;;;;;;;;5030657;28;20056;-54
2021/04/28 06:32:45;;;;;;;1.40;1.30;;;;;;;;;;5032340;28;20104;-54
2021/04/28 06:35:12;;;;;;;1.20;1.20;;;;;;;;;;5030403;28;20037;-54
2021/04/28 06:37:38;;;;;;;1.40;1.40;;;;;;;;;;5033202;28;20045;-51
2021/04/28 06:40:09;;;;;;;1.40;1.40;;;;;;;;;;5030612;28;20060;-54
2021/04/28 06:42:36;;;;;;;1.70;1.60;;;;;;;;;;5031327;28;20043;-54
2021/04/28 06:45:04;;;;;;;1.30;1.30;;;;;;;;;;5028054;28;20046;-53
2021/04/28 06:47:30;;;;;;;1.20;1.20;;;;;;;;;;5027852;28;20124;-54
2021/04/28 06:49:57;;;;;;;2.08;1.20;;;;;;;;;;5032726;28;20045;-54
2021/04/28 06:52:23;;;;;;;1.10;1.10;;;;;;;;;;5030076;28;20625;-54
2021/04/28 06:54:49;;;;;;;1.30;1.30;;;;;;;;;;5030835;28;20045;-54
2021/04/28 06:57:16;;;;;;;1.30;1.20;;;;;;;;;;5030335;28;20068;-54
2021/04/28 06:59:42;;;;;;;2.13;1.20;;;;;;;;;;5024388;28;20045;-54
2021/04/28 07:02:09;;;;;;;1.20;1.20;;;;;;;;;;5013803;28;20037;-54
2021/04/28 07:04:39;;;;;;;1.40;1.40;;;;;;;;;;5030305;28;20099;-53
2021/04/28 07:07:05;;;;;;;2.35;1.40;;;;;;;;;;5029704;28;20398;-54
2021/04/28 07:09:32;;;;;;;1.40;1.10;;;;;;;;;;5019362;28;20478;-54
2021/04/28 07:11:58;;;;;;;4.18;1.42;;;;;;;;;;5023726;28;20045;-53
2021/04/28 07:14:25;;;;;;;1.55;1.33;;;;;;;;;;5014191;28;20038;-54
2021/04/28 07:16:52;;;;;;;1.05;1.02;;;;;;;;;;5026459;28;20033;-54
2021/04/28 07:19:18;;;;;;;1.10;1.10;;;;;;;;;;5018968;28;20806;-53
2021/04/28 07:21:44;;;;;;;1.10;1.10;;;;;;;;;;5031571;28;20053;-54
2021/04/28 07:24:10;;;;;;;1.25;1.13;;;;;;;;;;5029941;28;20123;-53
2021/04/28 07:26:36;;;;;;;2.55;2.25;;;;;;;;;;5014584;28;20050;-54
2021/04/28 07:29:03;;;;;;;1.50;1.40;;;;;;;;;;5030442;28;20067;-54
2021/04/28 07:31:30;;;;;;;1.70;1.65;;;;;;;;;;5018562;28;20041;-55
2021/04/28 07:33:57;;;;;;;1.90;1.25;;;;;;;;;;5031715;28;20044;-55
2021/04/28 07:36:23;;;;;;;1.80;1.80;;;;;;;;;;5027190;28;20099;-55
2021/04/28 07:38:51;;;;;;;1.27;1.27;;;;;;;;;;5014765;28;20053;-54
2021/04/28 07:41:18;;;;;;;1.23;1.23;;;;;;;;;;5030476;28;20573;-54
2021/04/28 07:43:44;;;;;;;1.60;1.60;;;;;;;;;;5025032;28;20052;-54
2021/04/28 07:46:10;;;;;;;2.45;2.45;;;;;;;;;;5025429;28;20073;-53
2021/04/28 07:48:37;;;;;;;1.83;1.83;;;;;;;;;;5026261;28;20446;-54
2021/04/28 07:51:06;;;;;;;1.55;1.45;;;;;;;;;;5015436;28;20790;-54
2021/04/28 07:53:32;;;;;;;1.90;1.90;;;;;;;;;;5020732;28;20036;-54
2021/04/28 07:55:59;;;;;;;1.60;1.60;;;;;;;;;;5021513;28;20041;-54
2021/04/28 07:58:25;;;;;;;1.48;1.48;;;;;;;;;;5031648;28;20048;-54
2021/04/28 08:00:51;;;;;;;1.63;1.52;;;;;;;;;;5025649;28;20434;-54
2021/04/28 08:03:18;;;;;;;1.45;1.45;;;;;;;;;;5016005;28;20029;-54
2021/04/28 08:05:44;;;;;;;1.50;1.50;;;;;;;;;;5019476;28;20109;-53
2021/04/28 08:08:10;;;;;;;1.42;1.42;;;;;;;;;;5021054;28;20068;-54
2021/04/28 08:10:36;;;;;;;1.20;1.20;;;;;;;;;;5030839;28;20045;-54
2021/04/28 08:13:08;;;;;;;1.20;1.20;;;;;;;;;;5025095;28;20092;-54
2021/04/28 08:15:35;;;;;;;1.40;1.35;;;;;;;;;;5024482;28;20041;-54
2021/04/28 08:18:03;;;;;;;1.20;1.20;;;;;;;;;;5021832;28;20030;-54
2021/04/28 08:20:29;;;;;;;1.30;1.30;;;;;;;;;;5021785;28;20492;-54
2021/04/28 08:22:55;;;;;;;1.75;1.10;;;;;;;;;;5029961;28;20053;-54
2021/04/28 08:25:22;;;;;;;1.60;1.60;;;;;;;;;;5022317;28;20114;-54
2021/04/28 08:27:49;;;;;;;1.40;1.38;;;;;;;;;;5018740;28;20033;-54
2021/04/28 08:30:16;;;;;;;1.15;1.15;;;;;;;;;;5030845;28;20468;-54
2021/04/28 08:32:42;;;;;;;1.20;1.20;;;;;;;;;;5028761;28;20096;-54
2021/04/28 08:35:13;;;;;;;1.45;1.00;;;;;;;;;;5012243;28;20474;-54
2021/04/28 08:37:40;;;;;;;1.25;1.25;;;;;;;;;;5027677;28;20029;-54
2021/04/28 08:40:07;;;;;;;1.10;1.10;;;;;;;;;;5028450;28;20055;-53
2021/04/28 08:42:34;;;;;;;1.10;1.10;;;;;;;;;;5015004;28;20045;-53
2021/04/28 08:45:01;;;;;;;1.27;1.17;;;;;;;;;;5026136;28;20037;-54
2021/04/28 08:47:28;;;;;;;1.17;1.17;;;;;;;;;;5016821;28;20042;-54
2021/04/28 08:49:54;;;;;;;1.02;1.02;;;;;;;;;;5028282;28;20049;-53
2021/04/28 08:52:21;;;;;;;1.20;1.20;;;;;;;;;;5028519;28;20040;-54
2021/04/28 08:54:48;;;;;;;2.28;2.28;;;;;;;;;;5014278;28;20546;-54
2021/04/28 08:57:14;;;;;;;1.90;1.90;;;;;;;;;;5026833;28;20037;-54
2021/04/28 08:59:41;;;;;;;1.48;1.30;;;;;;;;;;5022775;28;20042;-54
2021/04/28 09:02:17;;;;;;;3.53;1.80;;;;;;;;;;5019852;28;20410;-54
2021/04/28 09:05:00;;;;;;;1.50;1.50;;;;;;;;;;5021004;28;20044;-54
2021/04/28 09:07:30;;;;;;;1.30;1.30;;;;;;;;;;5009831;28;20034;-54
2021/04/28 09:10:00;;;;;;;1.48;1.48;;;;;;;;;;5022091;28;20053;-54
2021/04/28 09:12:26;;;;;;;1.00;1.00;;;;;;;;;;5018737;28;20507;-54
2021/04/28 09:14:53;;;;;;;1.15;1.15;;;;;;;;;;5026569;28;20029;-52
2021/04/28 09:17:19;;;;;;;1.50;1.00;;;;;;;;;;5025545;28;20037;-55
2021/04/28 09:19:53;;;;;;;1.70;1.70;;;;;;;;;;5017202;28;20057;-54
2021/04/28 09:22:22;;;;;;;1.20;1.20;;;;;;;;;;5029687;28;20132;-54
2021/04/28 09:24:53;;;;;;;6.32;1.40;;;;;;;;;;5026990;28;20041;-54
2021/04/28 09:27:34;;;;;;;1.08;1.08;;;;;;;;;;5028700;28;20080;-53
2021/04/28 09:30:02;;;;;;;0.90;0.90;;;;;;;;;;5029495;28;20057;-54
2021/04/28 09:32:32;;;;;;;1.00;1.00;;;;;;;;;;5018226;28;20061;-54
2021/04/28 09:35:15;;;;;;;1.75;1.75;;;;;;;;;;5019584;28;20097;-55
2021/04/28 09:37:55;;;;;;;1.40;1.40;;;;;;;;;;5028750;28;20451;-54
2021/04/28 09:40:21;;;;;;;4.55;1.05;;;;;;;;;;5020690;28;20136;-54
2021/04/28 09:42:57;;;;;;;0.98;0.98;;;;;;;;;;5020597;28;20045;-54
2021/04/28 09:45:37;;;;;;;1.00;1.00;;;;;;;;;;5026824;28;20523;-54
2021/04/28 09:48:04;;;;;;;1.40;1.40;;;;;;;;;;5032249;28;20046;-54
2021/04/28 09:50:30;;;;;;;1.40;1.40;;;;;;;;;;5031942;28;20071;-53
2021/04/28 09:52:57;;;;;;;1.30;1.20;;;;;;;;;;5031682;28;20119;-53
2021/04/28 09:55:24;;;;;;;1.77;1.77;;;;;;;;;;5017396;28;20371;-53
2021/04/28 09:57:52;;;;;;;1.95;1.95;;;;;;;;;;5029408;28;20037;-54
2021/04/28 10:00:28;;;;;;;2.88;1.90;;;;;;;;;;5027120;28;20069;-54
2021/04/28 10:02:56;;;;;;;6.70;6.50;;;;;;;;;;5026163;28;20140;-54
2021/04/28 10:05:23;;;;;;;1.60;1.60;;;;;;;;;;5032424;28;20103;-53
2021/04/28 10:07:52;;;;;;;1.50;1.50;;;;;;;;;;5033305;28;20052;-54
2021/04/28 10:10:19;;;;;;;1.40;1.40;;;;;;;;;;5029087;28;20037;-53
2021/04/28 10:12:46;;;;;;;2.10;2.00;;;;;;;;;;5030051;28;20107;-54
2021/04/28 10:15:12;;;;;;;2.03;2.03;;;;;;;;;;5040029;28;20599;-54
2021/04/28 10:17:38;;;;;;;1.50;1.50;;;;;;;;;;5031320;28;20044;-53
2021/04/28 10:20:06;;;;;;;1.38;1.38;;;;;;;;;;5027299;28;20430;-54
2021/04/28 10:22:32;;;;;;;1.20;1.20;;;;;;;;;;5030687;28;20041;-54
2021/04/28 10:25:03;;;;;;;1.10;1.10;;;;;;;;;;5029885;28;20136;-54
2021/04/28 10:27:30;;;;;;;1.50;1.50;;;;;;;;;;5031999;28;20758;-53
2021/04/28 10:29:56;;;;;;;1.10;1.10;;;;;;;;;;5030231;28;20069;-55
2021/04/28 10:32:23;;;;;;;1.10;1.10;;;;;;;;;;5026909;28;20040;-52
2021/04/28 10:35:06;;;;;;;1.80;1.20;;;;;;;;;;5031554;28;20083;-55
2021/04/28 10:37:34;;;;;;;1.13;1.13;;;;;;;;;;5030206;28;20029;-54
2021/04/28 10:40:00;;;;;;;1.23;1.23;;;;;;;;;;5024373;28;20507;-54
2021/04/28 10:42:36;;;;;;;1.10;1.10;;;;;;;;;;5030084;28;20120;-54
2021/04/28 10:45:09;;;;;;;1.08;1.05;;;;;;;;;;5028204;28;20056;-54
2021/04/28 10:47:46;;;;;;;2.65;1.20;;;;;;;;;;5025107;28;20081;-54
2021/04/28 10:50:23;;;;;;;1.30;1.30;;;;;;;;;;5023302;28;20060;-54
2021/04/28 10:53:02;;;;;;;1.58;1.48;;;;;;;;;;5031703;28;20037;-54
2021/04/28 10:55:32;;;;;;;2.53;2.20;;;;;;;;;;5021878;28;20085;-54
2021/04/28 10:58:24;;;;;;;8.52;7.18;;;;;;;;;;5024566;28;20036;-54
2021/04/28 11:00:58;;;;;;;1.60;1.60;;;;;;;;;;5032164;28;20041;-53
2021/04/28 11:03:33;;;;;;;1.38;1.38;;;;;;;;;;5031340;28;20470;-54
2021/04/28 11:09:00;;;;;;;0.90;0.90;;;;;;;;;;5015938;28;20480;-54
2021/04/28 11:11:32;;;;;;;0.80;0.80;;;;;;;;;;5024294;28;20042;-53
2021/04/28 11:14:27;;;;;;;0.90;0.90;;;;;;;;;;5022691;28;20056;-53
2021/04/28 11:17:03;;;;;;;0.82;0.82;;;;;;;;;;5021613;28;20034;-51
2021/04/28 11:19:35;;;;;;;1.00;0.90;;;;;;;;;;5028630;28;20065;-54
2021/04/28 11:22:08;;;;;;;1.83;1.73;;;;;;;;;;5028311;28;20041;-54
2021/04/28 11:24:53;;;;;;;0.82;0.82;;;;;;;;;;5018010;28;20046;-54
2021/04/28 11:27:38;;;;;;;0.90;0.90;;;;;;;;;;5026517;28;20053;-53
2021/04/28 11:30:05;;;;;;;2.30;0.80;;;;;;;;;;5029737;28;20048;-52
2021/04/28 11:32:31;;;;;;;0.80;0.80;;;;;;;;;;5022657;28;20108;-52
2021/04/28 11:35:11;;;;;;;0.80;0.80;;;;;;;;;;5034814;28;20041;-53
2021/04/28 11:37:37;;;;;;;1.08;1.08;;;;;;;;;;5030162;28;20034;-54
2021/04/28 11:40:06;;;;;;;1.08;0.80;;;;;;;;;;5027616;28;20120;-54
2021/04/28 11:42:33;;;;;;;0.80;0.80;;;;;;;;;;5028664;28;20041;-49
2021/04/28 11:44:59;;;;;;;0.80;0.80;;;;;;;;;;5027050;28;20050;-48
2021/04/28 11:47:27;;;;;;;0.80;0.80;;;;;;;;;;5025546;28;20502;-49
2021/04/28 11:49:54;;;;;;;0.80;0.80;;;;;;;;;;5030293;28;20045;-49
2021/04/28 11:52:22;;;;;;;0.80;0.80;;;;;;;;;;5021123;28;20137;-45
2021/04/28 11:54:52;;;;;;;1.20;0.80;;;;;;;;;;5022245;28;20124;-44
2021/04/28 11:57:26;;;;;;;0.85;0.85;;;;;;;;;;5030092;28;20045;-46
2021/04/28 12:00:13;;;;;;;0.70;0.70;;;;;;;;;;5030884;28;20124;-44
2021/04/28 12:02:39;;;;;;;0.90;0.90;;;;;;;;;;5029440;28;20137;-46
2021/04/28 12:05:06;;;;;;;0.70;0.70;;;;;;;;;;5016285;28;20104;-46
2021/04/28 12:07:33;;;;;;;0.90;0.90;;;;;;;;;;5021983;28;20136;-45
2021/04/28 12:10:00;;;;;;;1.55;0.90;;;;;;;;;;5014283;28;20414;-46
2021/04/28 12:12:30;;;;;;;0.88;0.80;;;;;;;;;;5028692;28;20116;-46
2021/04/28 12:15:06;;;;;;;0.80;0.80;;;;;;;;;;5027461;28;20030;-46
2021/04/28 12:17:33;;;;;;;0.90;0.90;;;;;;;;;;5021893;28;20044;-45
2021/04/28 12:19:59;;;;;;;0.90;0.90;;;;;;;;;;5027307;28;20052;-49
2021/04/28 12:22:27;;;;;;;1.63;0.90;;;;;;;;;;5028275;28;20045;-46
2021/04/28 12:24:57;;;;;;;1.63;0.80;;;;;;;;;;5030763;28;20038;-46
2021/04/28 12:27:50;;;;;;;0.70;0.70;;;;;;;;;;5026439;28;20045;-45
2021/04/28 12:30:22;;;;;;;1.13;1.00;;;;;;;;;;5018943;28;20095;-46
2021/04/28 12:32:57;;;;;;;1.10;1.00;;;;;;;;;;5022336;28;20030;-46
2021/04/28 12:35:24;;;;;;;0.80;0.80;;;;;;;;;;5027499;28;20414;-46
2021/04/28 12:38:11;;;;;;;0.73;0.73;;;;;;;;;;5028725;28;20045;-45
2021/04/28 12:40:43;;;;;;;1.52;0.80;;;;;;;;;;5029788;28;20085;-46
2021/04/28 12:43:11;;;;;;;0.80;0.80;;;;;;;;;;5030927;28;20136;-48
2021/04/28 12:45:49;;;;;;;1.02;1.02;;;;;;;;;;5016572;28;20092;-46
2021/04/28 12:48:16;;;;;;;0.80;0.80;;;;;;;;;;5027895;28;20060;-47
2021/04/28 12:50:43;;;;;;;0.90;0.82;;;;;;;;;;5016264;28;20029;-46
2021/04/28 12:53:11;;;;;;;0.70;0.70;;;;;;;;;;5016237;28;20080;-45
2021/04/28 12:55:41;;;;;;;0.80;0.70;;;;;;;;;;5022386;28;20600;-46
2021/04/28 12:58:10;;;;;;;0.70;0.70;;;;;;;;;;5028497;28;20041;-45
2021/04/28 13:00:41;;;;;;;0.70;0.70;;;;;;;;;;5029050;28;20037;-45
2021/04/28 13:03:10;;;;;;;0.90;0.90;;;;;;;;;;5018489;28;20069;-46
2021/04/28 13:05:38;;;;;;;1.00;1.00;;;;;;;;;;5030028;28;20041;-47
2021/04/28 13:08:21;;;;;;;1.40;0.73;;;;;;;;;;5025745;28;20052;-48
2021/04/28 13:10:47;;;;;;;;;;;;;;;;;;5021725;28;20478;-46
2021/04/28 13:13:30;;;;;;;0.75;0.75;;;;;;;;;;5029678;28;19921;-46
2021/04/28 13:15:56;;;;;;;0.70;0.70;;;;;;;;;;5027627;28;20037;-47
2021/04/28 13:18:22;;;;;;;0.77;0.77;;;;;;;;;;5027106;28;20034;-45
2021/04/28 13:20:49;;;;;;;0.90;0.90;;;;;;;;;;5022954;28;20034;-48
2021/04/28 13:23:16;;;;;;;0.90;0.90;;;;;;;;;;5027230;28;20068;-45
2021/04/28 13:25:56;;;;;;;2.13;1.70;;;;;;;;;;5017735;28;20426;-45
2021/04/28 13:28:28;;;;;;;0.80;0.80;;;;;;;;;;5027812;28;20391;-46
2021/04/28 13:31:12;;;;;;;0.88;0.88;;;;;;;;;;5027973;28;20698;-45
2021/04/28 13:33:39;;;;;;;1.15;0.90;;;;;;;;;;5023165;28;20104;-46
2021/04/28 13:36:05;;;;;;;3.70;2.03;;;;;;;;;;5027556;28;20132;-45
2021/04/28 13:38:48;;;;;;;0.80;0.80;;;;;;;;;;5026704;28;20080;-45
2021/04/28 13:41:15;;;;;;;0.80;0.80;;;;;;;;;;5025080;28;20473;-46
2021/04/28 13:43:41;;;;;;;1.63;0.80;;;;;;;;;;5027674;28;20121;-44
2021/04/28 13:46:07;;;;;;;0.77;0.77;;;;;;;;;;5026405;28;20034;-48
2021/04/28 13:48:34;;;;;;;0.70;0.70;;;;;;;;;;5023589;28;20527;-45
2021/04/28 13:51:00;;;;;;;0.80;0.80;;;;;;;;;;5019022;28;20041;-48
2021/04/28 13:53:27;;;;;;;0.80;0.80;;;;;;;;;;5022657;28;20046;-46
2021/04/28 13:55:54;;;;;;;0.80;0.80;;;;;;;;;;5026397;28;20049;-46
2021/04/28 13:58:21;;;;;;;0.80;0.80;;;;;;;;;;5030008;28;20435;-49
2021/04/28 14:00:47;;;;;;;0.80;0.80;;;;;;;;;;5025379;28;20120;-47
2021/04/28 14:03:13;;;;;;;0.77;0.77;;;;;;;;;;5029358;28;20030;-47
2021/04/28 14:05:40;;;;;;;0.90;0.90;;;;;;;;;;5024461;28;20052;-45
2021/04/28 14:08:06;;;;;;;1.58;1.17;;;;;;;;;;5024793;28;20120;-46
2021/04/28 14:10:33;;;;;;;3.08;0.85;;;;;;;;;;5029152;28;20040;-46
2021/04/28 14:12:59;;;;;;;0.70;0.70;;;;;;;;;;5027299;28;20041;-47
2021/04/28 14:15:26;;;;;;;0.70;0.70;;;;;;;;;;5027826;28;20045;-46
2021/04/28 14:17:52;;;;;;;0.70;0.70;;;;;;;;;;5021368;28;20037;-46
2021/04/28 14:20:18;;;;;;;0.60;0.60;;;;;;;;;;5027254;28;20121;-46
2021/04/28 14:22:45;;;;;;;2.58;0.63;;;;;;;;;;5032525;28;20053;-46
2021/04/28 14:25:11;;;;;;;0.70;0.70;;;;;;;;;;5030392;28;20041;-47
2021/04/28 14:27:38;;;;;;;0.80;0.80;;;;;;;;;;5029639;28;20046;-48
2021/04/28 14:30:05;;;;;;;1.83;0.80;;;;;;;;;;5020259;28;20073;-47
2021/04/28 14:32:32;;;;;;;1.75;0.70;;;;;;;;;;5026491;28;20034;-47
2021/04/28 14:35:00;;;;;;;0.90;0.70;;;;;;;;;;5032058;28;20045;-46
2021/04/28 14:37:29;;;;;;;0.55;0.55;;;;;;;;;;5031860;28;20036;-46
2021/04/28 14:39:55;;;;;;;1.58;0.70;;;;;;;;;;5031292;28;20064;-46
2021/04/28 14:42:22;;;;;;;1.27;0.70;;;;;;;;;;5017942;28;20045;-46
2021/04/28 14:44:48;;;;;;;0.80;0.80;;;;;;;;;;5027354;28;20478;-46
2021/04/28 14:47:14;;;;;;;1.00;0.70;;;;;;;;;;5017287;28;20112;-46
2021/04/28 14:49:43;;;;;;;0.70;0.70;;;;;;;;;;5024765;28;20042;-48
2021/04/28 14:52:09;;;;;;;1.17;0.60;;;;;;;;;;5030934;28;20044;-48